createdAt,value
2019-02-23T00:01:30.570Z,10.17
2019-02-23T00:04:00.814Z,10.33
2019-02-23T00:06:31.095Z,10.60
2019-02-23T00:09:01.388Z,9.60
2019-02-23T00:11:33.469Z,10.20
2019-02-23T00:14:03.777Z,10.47
2019-02-23T00:16:36.159Z,9.10
2019-02-23T00:19:06.575Z,9.07
2019-02-23T00:21:36.869Z,8.73
2019-02-23T00:24:06.949Z,9.60
2019-02-23T00:26:37.149Z,9.50
2019-02-23T00:29:08.433Z,9.47
2019-02-23T00:31:40.020Z,9.20
2019-02-23T00:34:10.177Z,10.57
2019-02-23T00:36:40.541Z,8.53
2019-02-23T00:39:10.753Z,9.57
2019-02-23T00:41:40.803Z,8.37
2019-02-23T00:44:10.991Z,8.70
2019-02-23T00:46:41.109Z,8.67
2019-02-23T00:49:12.632Z,9.37
2019-02-23T00:51:42.743Z,9.17
2019-02-23T00:54:12.816Z,9.17
2019-02-23T00:56:42.978Z,9.60
2019-02-23T00:59:13.141Z,10.23
2019-02-23T01:01:43.267Z,10.13
2019-02-23T01:04:13.650Z,9.40
2019-02-23T01:06:43.747Z,9.53
2019-02-23T01:09:13.841Z,8.50
2019-02-23T01:11:44.091Z,10.30
2019-02-23T01:14:15.153Z,9.00
2019-02-23T01:16:45.236Z,10.27
2019-02-23T01:19:16.177Z,9.80
2019-02-23T01:21:46.364Z,9.93
2019-02-23T01:24:16.832Z,9.87
2019-02-23T01:26:46.985Z,10.43
2019-02-23T01:29:18.291Z,10.50
2019-02-23T01:31:48.748Z,9.97
2019-02-23T01:34:18.883Z,9.80
2019-02-23T01:36:48.966Z,10.50
2019-02-23T01:39:19.067Z,11.40
2019-02-23T01:41:49.401Z,11.17
2019-02-23T01:44:20.003Z,10.90
2019-02-23T01:46:51.223Z,10.70
2019-02-23T01:49:21.358Z,11.50
2019-02-23T01:51:51.455Z,11.47
2019-02-23T01:54:22.091Z,11.38
2019-02-23T01:56:52.259Z,11.77
2019-02-23T01:59:22.312Z,11.07
2019-02-23T02:01:52.447Z,13.20
2019-02-23T02:04:22.832Z,11.70
2019-02-23T02:06:53.019Z,12.40
2019-02-23T02:09:24.386Z,10.90
2019-02-23T02:11:54.478Z,12.43
2019-02-23T02:14:25.063Z,11.90
2019-02-23T02:16:55.419Z,11.40
2019-02-23T02:19:25.521Z,13.07
2019-02-23T02:21:55.844Z,12.83
2019-02-23T02:24:26.012Z,12.17
2019-02-23T02:26:56.109Z,12.77
2019-02-23T02:29:26.251Z,12.43
2019-02-23T02:31:56.345Z,14.40
2019-02-23T02:34:28.212Z,12.67
2019-02-23T02:36:58.448Z,13.00
2019-02-23T02:39:28.634Z,13.70
2019-02-23T02:41:58.759Z,14.90
2019-02-23T02:44:29.116Z,14.07
2019-02-23T02:46:59.356Z,14.37
2019-02-23T02:49:29.473Z,14.17
2019-02-23T02:51:59.690Z,13.00
2019-02-23T02:54:29.859Z,14.27
2019-02-23T02:57:00.223Z,13.80
2019-02-23T02:59:30.317Z,14.65
2019-02-23T03:02:00.442Z,14.00
2019-02-23T03:04:30.584Z,13.63
2019-02-23T03:07:00.701Z,14.40
2019-02-23T03:09:30.808Z,14.25
2019-02-23T03:12:01.205Z,15.50
2019-02-23T03:14:32.842Z,13.40
2019-02-23T03:17:03.218Z,14.53
2019-02-23T03:19:33.374Z,14.40
2019-02-23T03:22:03.461Z,15.67
2019-02-23T03:24:33.561Z,12.90
2019-02-23T03:27:03.870Z,14.00
2019-02-23T03:29:34.315Z,13.40
2019-02-23T03:32:04.427Z,12.80
2019-02-23T03:34:35.720Z,13.97
2019-02-23T03:37:05.900Z,14.53
2019-02-23T03:39:36.245Z,12.80
2019-02-23T03:42:06.349Z,13.87
2019-02-23T03:44:37.586Z,12.93
2019-02-23T03:47:07.701Z,14.57
2019-02-23T03:49:37.907Z,12.67
2019-02-23T03:52:08.404Z,12.63
2019-02-23T03:54:39.584Z,11.67
2019-02-23T03:57:10.832Z,13.03
2019-02-23T03:59:41.115Z,12.70
2019-02-23T04:02:11.483Z,11.97
2019-02-23T04:04:41.609Z,11.90
2019-02-23T04:07:11.756Z,11.20
2019-02-23T04:09:41.847Z,11.30
2019-02-23T04:12:12.022Z,10.93
2019-02-23T04:14:42.134Z,10.90
2019-02-23T04:17:12.256Z,11.63
2019-02-23T04:19:42.652Z,11.37
2019-02-23T04:22:12.833Z,11.70
2019-02-23T04:24:42.892Z,11.73
2019-02-23T04:27:13.013Z,11.10
2019-02-23T04:29:43.575Z,11.60
2019-02-23T04:32:14.982Z,10.80
2019-02-23T04:34:45.104Z,11.07
2019-02-23T04:37:16.138Z,10.60
2019-02-23T04:39:46.579Z,9.13
2019-02-23T04:42:16.877Z,10.40
2019-02-23T04:44:47.021Z,10.77
2019-02-23T04:47:17.212Z,9.50
2019-02-23T04:49:54.503Z,9.20
2019-02-23T04:52:24.821Z,9.37
2019-02-23T04:54:54.950Z,7.67
2019-02-23T04:57:25.274Z,7.43
2019-02-23T04:59:55.432Z,7.73
2019-02-23T05:02:25.832Z,6.90
2019-02-23T05:04:55.966Z,8.13
2019-02-23T05:07:26.235Z,7.83
2019-02-23T05:09:56.602Z,7.80
2019-02-23T05:12:26.896Z,7.57
2019-02-23T05:14:56.973Z,8.00
2019-02-23T05:17:27.116Z,7.47
2019-02-23T05:19:57.174Z,7.60
2019-02-23T05:22:27.258Z,7.13
2019-02-23T05:24:57.397Z,6.40
2019-02-23T05:27:27.767Z,7.60
2019-02-23T05:29:57.944Z,7.43
2019-02-23T05:32:28.249Z,7.10
2019-02-23T05:34:58.300Z,7.53
2019-02-23T05:37:28.404Z,7.13
2019-02-23T05:39:58.848Z,7.15
2019-02-23T05:42:29.253Z,8.17
2019-02-23T05:44:59.324Z,8.57
2019-02-23T05:47:29.476Z,7.80
2019-02-23T05:49:59.846Z,7.10
2019-02-23T05:52:30.145Z,6.40
2019-02-23T05:55:00.363Z,7.10
2019-02-23T05:57:30.987Z,6.62
2019-02-23T06:00:01.186Z,5.67
2019-02-23T06:02:31.388Z,7.47
2019-02-23T06:05:01.487Z,7.60
2019-02-23T06:07:33.060Z,8.20
2019-02-23T06:10:03.773Z,7.87
2019-02-23T06:12:34.067Z,8.20
2019-02-23T06:15:04.303Z,7.33
2019-02-23T06:17:34.423Z,7.60
2019-02-23T06:20:04.632Z,8.20
2019-02-23T06:22:34.990Z,7.53
2019-02-23T06:25:06.104Z,7.83
2019-02-23T06:27:36.383Z,7.53
2019-02-23T06:30:08.497Z,8.57
2019-02-23T06:32:38.604Z,7.70
2019-02-23T06:35:08.922Z,8.27
2019-02-23T06:37:40.269Z,8.03
2019-02-23T06:40:11.685Z,8.03
2019-02-23T06:42:42.171Z,8.28
2019-02-23T06:45:12.552Z,8.10
2019-02-23T06:47:42.800Z,7.80
2019-02-23T06:50:13.206Z,7.55
2019-02-23T06:52:43.390Z,7.03
2019-02-23T06:55:13.607Z,7.23
2019-02-23T06:57:43.766Z,7.40
2019-02-23T07:00:14.656Z,6.17
2019-02-23T07:02:45.051Z,7.15
2019-02-23T07:05:15.709Z,8.13
2019-02-23T07:07:46.183Z,6.90
2019-02-23T07:10:17.714Z,6.75
2019-02-23T07:12:48.267Z,7.22
2019-02-23T07:15:18.550Z,8.30
2019-02-23T07:17:48.721Z,6.60
2019-02-23T07:20:18.939Z,7.10
2019-02-23T07:22:49.376Z,7.10
2019-02-23T07:25:20.218Z,6.17
2019-02-23T07:27:56.654Z,6.43
2019-02-23T07:30:26.810Z,6.50
2019-02-23T07:32:56.957Z,7.30
2019-02-23T07:35:27.083Z,6.57
2019-02-23T07:37:57.645Z,6.47
2019-02-23T07:40:27.816Z,4.90
2019-02-23T07:42:59.094Z,7.13
2019-02-23T07:45:29.093Z,7.23
2019-02-23T07:47:59.187Z,8.00
2019-02-23T07:50:29.734Z,6.40
2019-02-23T07:52:59.905Z,6.60
2019-02-23T07:55:30.080Z,6.50
2019-02-23T07:58:00.187Z,4.33
2019-02-23T08:00:30.324Z,5.73
2019-02-23T08:03:00.733Z,5.60
2019-02-23T08:05:30.948Z,5.10
2019-02-23T08:08:01.117Z,4.73
2019-02-23T08:10:31.318Z,5.10
2019-02-23T08:13:01.813Z,5.67
2019-02-23T08:15:31.982Z,5.87
2019-02-23T08:18:02.158Z,5.70
2019-02-23T08:20:32.370Z,4.77
2019-02-23T08:23:02.772Z,6.28
2019-02-23T08:25:33.107Z,5.83
2019-02-23T08:28:03.281Z,7.47
2019-02-23T08:30:33.322Z,5.67
2019-02-23T08:33:03.420Z,5.40
2019-02-23T08:35:34.038Z,5.85
2019-02-23T08:38:04.194Z,5.17
2019-02-23T08:40:34.387Z,6.03
2019-02-23T08:43:04.791Z,5.85
2019-02-23T08:45:36.433Z,4.10
2019-02-23T08:48:06.941Z,6.40
2019-02-23T08:50:38.224Z,7.30
2019-02-23T08:53:08.460Z,5.73
2019-02-23T08:55:38.932Z,6.10
2019-02-23T08:58:10.210Z,6.73
2019-02-23T09:00:42.296Z,5.33
2019-02-23T09:03:14.108Z,5.43
2019-02-23T09:05:44.259Z,6.63
2019-02-23T09:08:15.087Z,5.90
2019-02-23T09:10:45.154Z,5.27
2019-02-23T09:13:15.568Z,3.87
2019-02-23T09:15:46.051Z,5.87
2019-02-23T09:18:16.339Z,5.20
2019-02-23T09:20:46.647Z,6.03
2019-02-23T09:23:18.048Z,5.30
2019-02-23T09:25:48.370Z,5.30
2019-02-23T09:28:18.529Z,5.43
2019-02-23T09:30:48.825Z,5.77
2019-02-23T09:33:19.236Z,4.97
2019-02-23T09:35:49.366Z,6.30
2019-02-23T09:38:19.545Z,5.20
2019-02-23T09:40:49.724Z,5.50
2019-02-23T09:43:19.826Z,4.60
2019-02-23T09:45:50.271Z,4.47
2019-02-23T09:48:20.441Z,5.00
2019-02-23T09:50:50.693Z,5.70
2019-02-23T09:53:20.893Z,5.90
2019-02-23T09:55:51.232Z,5.13
2019-02-23T09:58:21.563Z,6.50
2019-02-23T10:00:51.750Z,6.10
2019-02-23T10:03:22.847Z,6.25
2019-02-23T10:05:54.249Z,5.20
2019-02-23T10:08:24.516Z,6.20
2019-02-23T10:10:57.498Z,7.10
2019-02-23T10:13:26.876Z,6.50
2019-02-23T10:15:57.024Z,5.20
2019-02-23T10:18:27.411Z,6.50
2019-02-23T10:20:57.674Z,6.40
2019-02-23T10:23:27.998Z,5.93
2019-02-23T10:25:58.531Z,6.43
2019-02-23T10:28:28.708Z,5.83
2019-02-23T10:30:58.877Z,5.03
2019-02-23T10:33:29.055Z,4.00
2019-02-23T10:35:59.423Z,7.73
2019-02-23T10:38:29.829Z,7.90
2019-02-23T10:40:59.928Z,5.40
2019-02-23T10:43:30.363Z,7.45
2019-02-23T10:46:00.768Z,7.50
2019-02-23T10:48:30.889Z,6.80
2019-02-23T10:51:01.271Z,7.03
2019-02-23T10:53:33.091Z,8.70
2019-02-23T10:56:03.537Z,8.20
2019-02-23T10:58:33.763Z,6.70
2019-02-23T11:01:06.821Z,7.13
2019-02-23T11:03:36.094Z,5.20
2019-02-23T11:06:08.496Z,7.50
2019-02-23T11:08:38.677Z,8.43
2019-02-23T11:11:08.907Z,7.93
2019-02-23T11:13:40.632Z,5.73
2019-02-23T11:16:10.824Z,8.60
2019-02-23T11:18:41.030Z,8.87
2019-02-23T11:21:11.630Z,6.50
2019-02-23T11:23:44.458Z,8.40
2019-02-23T11:26:14.007Z,8.87
2019-02-23T11:28:44.380Z,7.70
2019-02-23T11:31:14.681Z,7.40
2019-02-23T11:33:44.804Z,7.47
2019-02-23T11:36:14.884Z,6.90
2019-02-23T11:38:45.035Z,6.70
2019-02-23T11:41:15.227Z,4.53
2019-02-23T11:43:45.604Z,6.50
2019-02-23T11:46:15.710Z,7.20
2019-02-23T11:48:45.813Z,7.90
2019-02-23T11:51:16.069Z,8.20
2019-02-23T11:53:54.638Z,7.53
2019-02-23T11:56:18.996Z,8.60
2019-02-23T11:58:49.218Z,7.37
2019-02-23T12:01:20.877Z,7.10
2019-02-23T12:03:51.093Z,7.30
2019-02-23T12:06:22.455Z,7.70
2019-02-23T12:08:53.051Z,7.30
2019-02-23T12:11:23.251Z,7.70
2019-02-23T12:13:53.373Z,7.03
2019-02-23T12:16:23.654Z,7.90
2019-02-23T12:18:55.046Z,5.67
2019-02-23T12:21:25.536Z,6.60
2019-02-23T12:24:05.451Z,6.17
2019-02-23T12:26:28.138Z,5.62
2019-02-23T12:28:58.268Z,6.23
2019-02-23T12:31:28.499Z,6.10
2019-02-23T12:33:58.951Z,5.90
2019-02-23T12:36:29.209Z,5.13
2019-02-23T12:38:59.411Z,5.40
2019-02-23T12:41:29.512Z,5.13
2019-02-23T12:43:59.844Z,4.47
2019-02-23T12:46:30.374Z,6.27
2019-02-23T12:49:00.670Z,5.20
2019-02-23T12:51:31.153Z,5.50
2019-02-23T12:54:01.413Z,5.77
2019-02-23T12:56:31.533Z,5.43
2019-02-23T12:59:01.972Z,5.80
2019-02-23T13:01:32.224Z,5.07
2019-02-23T13:04:02.485Z,5.30
2019-02-23T13:06:34.298Z,5.03
2019-02-23T13:09:31.754Z,5.20
2019-02-23T13:12:15.131Z,6.30
2019-02-23T13:15:02.351Z,6.73
2019-02-23T13:18:10.807Z,4.85
2019-02-23T13:21:19.350Z,4.57
2019-02-23T13:24:27.888Z,5.13
2019-02-23T13:27:12.305Z,5.30
2019-02-23T13:30:26.764Z,4.20
2019-02-23T13:33:37.044Z,4.50
2019-02-23T13:36:56.094Z,5.00
2019-02-23T13:39:51.478Z,5.07
2019-02-23T13:43:00.288Z,4.47
2019-02-23T13:45:39.158Z,3.52
2019-02-23T13:48:52.076Z,4.40
2019-02-23T13:51:58.852Z,5.07
2019-02-23T13:55:19.449Z,4.87
2019-02-23T13:58:27.832Z,4.50
2019-02-23T14:01:46.831Z,3.97
2019-02-23T14:04:43.609Z,5.07
2019-02-23T14:07:46.657Z,4.73
2019-02-23T14:10:52.719Z,4.50
2019-02-23T14:13:57.189Z,4.45
2019-02-23T14:16:52.449Z,4.20
2019-02-23T14:20:11.768Z,4.57
2019-02-23T14:23:09.160Z,4.20
2019-02-23T14:26:04.671Z,4.63
2019-02-23T14:29:27.730Z,4.50
2019-02-23T14:32:30.466Z,4.33
2019-02-23T14:35:30.281Z,4.60
2019-02-23T14:38:50.660Z,5.07
2019-02-23T14:41:46.917Z,4.07
2019-02-23T14:44:37.512Z,4.60
2019-02-23T14:47:39.147Z,4.80
2019-02-23T14:50:46.721Z,4.90
2019-02-23T14:53:49.369Z,4.83
2019-02-23T14:56:40.243Z,5.50
2019-02-23T15:00:06.670Z,6.20
2019-02-23T15:03:05.951Z,4.83
2019-02-23T15:06:01.185Z,4.60
2019-02-23T15:08:49.166Z,5.00
2019-02-23T15:12:04.307Z,4.83
2019-02-23T15:15:19.574Z,4.13
2019-02-23T15:18:32.009Z,4.40
2019-02-23T15:21:42.532Z,4.10
2019-02-23T15:24:38.439Z,4.17
2019-02-23T15:27:34.437Z,4.97
2019-02-23T15:30:35.586Z,3.70
2019-02-23T15:33:38.976Z,4.27
2019-02-23T15:36:37.834Z,4.80
2019-02-23T15:40:02.297Z,4.80
2019-02-23T15:43:14.485Z,3.90
2019-02-23T15:46:28.147Z,3.57
2019-02-23T15:49:32.778Z,4.80
2019-02-23T15:52:04.978Z,3.80
2019-02-23T15:54:36.860Z,3.33
2019-02-23T15:57:07.032Z,4.00
2019-02-23T15:59:37.224Z,4.23
2019-02-23T16:02:07.457Z,15.10
2019-02-23T16:04:37.911Z,12.13
2019-02-23T16:07:08.002Z,4.63
2019-02-23T16:09:38.192Z,4.83
2019-02-23T16:12:08.439Z,4.50
2019-02-23T16:14:38.884Z,3.53
2019-02-23T16:17:09.083Z,3.50
2019-02-23T16:19:39.249Z,3.43
2019-02-23T16:22:09.402Z,3.80
2019-02-23T16:24:39.794Z,8.07
2019-02-23T16:27:10.069Z,12.70
2019-02-23T16:29:40.244Z,8.00
2019-02-23T16:32:11.447Z,4.97
2019-02-23T16:34:41.996Z,4.90
2019-02-23T16:37:12.242Z,4.80
2019-02-23T16:39:42.418Z,4.20
2019-02-23T16:42:12.639Z,3.37
2019-02-23T16:44:43.059Z,3.63
2019-02-23T16:47:15.014Z,3.63
2019-02-23T16:49:45.210Z,2.90
2019-02-23T16:52:15.454Z,3.80
2019-02-23T16:54:45.665Z,3.43
2019-02-23T16:57:17.436Z,3.20
2019-02-23T16:59:48.046Z,3.30
2019-02-23T17:02:18.272Z,3.87
2019-02-23T17:04:53.432Z,3.67
2019-02-23T17:07:20.593Z,6.00
2019-02-23T17:09:51.116Z,4.50
2019-02-23T17:12:21.589Z,3.77
2019-02-23T17:14:51.752Z,4.40
2019-02-23T17:17:22.323Z,4.30
2019-02-23T17:19:54.720Z,4.07
2019-02-23T17:22:25.241Z,4.50
2019-02-23T17:24:55.449Z,4.03
2019-02-23T17:27:35.919Z,3.60
2019-02-23T17:29:57.447Z,3.67
2019-02-23T17:32:27.652Z,3.87
2019-02-23T17:34:57.778Z,3.83
2019-02-23T17:37:28.378Z,4.03
2019-02-23T17:39:58.733Z,3.70
2019-02-23T17:42:28.861Z,3.15
2019-02-23T17:45:00.439Z,3.53
2019-02-23T17:47:30.897Z,5.57
2019-02-23T17:50:01.145Z,4.80
2019-02-23T17:52:31.655Z,5.13
2019-02-23T17:55:01.788Z,4.97
2019-02-23T17:57:32.436Z,4.87
2019-02-23T18:00:02.579Z,5.53
2019-02-23T18:02:34.367Z,6.03
2019-02-23T18:05:04.607Z,4.43
2019-02-23T18:07:34.818Z,4.50
2019-02-23T18:10:05.553Z,4.10
2019-02-23T18:12:36.318Z,4.60
2019-02-23T18:15:06.432Z,3.77
2019-02-23T18:17:36.741Z,3.67
2019-02-23T18:20:08.424Z,4.00
2019-02-23T18:22:38.641Z,4.27
2019-02-23T18:25:09.395Z,3.70
2019-02-23T18:27:39.672Z,3.90
2019-02-23T18:30:10.871Z,3.60
2019-02-23T18:32:41.941Z,3.90
2019-02-23T18:35:15.148Z,3.53
2019-02-23T18:37:45.475Z,3.80
2019-02-23T18:40:15.649Z,3.23
2019-02-23T18:42:45.795Z,3.50
2019-02-23T18:45:15.781Z,4.30
2019-02-23T18:47:46.158Z,3.57
2019-02-23T18:50:18.364Z,4.27
2019-02-23T18:52:48.699Z,3.73
2019-02-23T18:55:18.959Z,4.03
2019-02-23T18:57:49.146Z,3.60
2019-02-23T19:00:24.411Z,4.17
2019-02-23T19:02:52.506Z,4.33
2019-02-23T19:05:22.864Z,4.77
2019-02-23T19:07:53.128Z,4.37
2019-02-23T19:10:23.735Z,4.20
2019-02-23T19:12:53.934Z,4.40
2019-02-23T19:15:23.966Z,3.80
2019-02-23T19:17:54.271Z,4.03
2019-02-23T19:20:24.791Z,3.83
2019-02-23T19:22:54.872Z,3.50
2019-02-23T19:25:25.104Z,4.33
2019-02-23T19:27:55.556Z,4.47
2019-02-23T19:30:25.896Z,3.53
2019-02-23T19:32:56.163Z,3.70
2019-02-23T19:35:26.847Z,3.75
2019-02-23T19:37:57.158Z,3.57
2019-02-23T19:40:27.535Z,4.10
2019-02-23T19:42:57.816Z,3.93
2019-02-23T19:45:27.941Z,3.87
2019-02-23T19:47:58.457Z,4.37
2019-02-23T19:50:32.652Z,3.87
2019-02-23T19:53:03.056Z,4.27
2019-02-23T19:55:33.300Z,4.17
2019-02-23T19:58:03.715Z,4.15
2019-02-23T20:00:33.804Z,3.87
2019-02-23T20:03:04.000Z,4.03
2019-02-23T20:05:34.269Z,4.30
2019-02-23T20:08:04.807Z,4.20
2019-02-23T20:10:35.080Z,4.00
2019-02-23T20:13:05.325Z,3.17
2019-02-23T20:15:35.883Z,3.60
2019-02-23T20:18:06.086Z,3.97
2019-02-23T20:20:36.517Z,3.57
2019-02-23T20:23:06.821Z,3.30
2019-02-23T20:25:37.024Z,3.47
2019-02-23T20:28:07.629Z,3.70
2019-02-23T20:30:39.283Z,3.73
2019-02-23T20:33:09.848Z,3.80
2019-02-23T20:35:40.161Z,3.03
2019-02-23T20:38:10.648Z,3.53
2019-02-23T20:40:41.215Z,3.67
2019-02-23T20:43:11.403Z,4.00
2019-02-23T20:45:41.884Z,3.87
2019-02-23T20:48:12.156Z,3.80
2019-02-23T20:50:42.359Z,3.50
2019-02-23T20:53:13.013Z,3.70
2019-02-23T20:55:43.325Z,3.70
2019-02-23T20:58:13.840Z,3.23
2019-02-23T21:00:44.422Z,3.30
2019-02-23T21:03:15.002Z,3.10
2019-02-23T21:05:45.430Z,3.33
2019-02-23T21:08:15.976Z,3.60
2019-02-23T21:10:47.375Z,3.57
2019-02-23T21:13:18.293Z,3.50
2019-02-23T21:15:48.480Z,3.30
2019-02-23T21:18:18.937Z,3.30
2019-02-23T21:20:49.134Z,3.37
2019-02-23T21:23:19.288Z,3.60
2019-02-23T21:25:49.602Z,3.60
2019-02-23T21:28:21.129Z,3.87
2019-02-23T21:30:51.380Z,3.27
2019-02-23T21:33:21.691Z,4.10
2019-02-23T21:35:54.039Z,3.60
2019-02-23T21:38:24.509Z,3.60
2019-02-23T21:41:04.674Z,3.93
2019-02-23T21:43:35.138Z,4.37
2019-02-23T21:46:05.404Z,3.37
2019-02-23T21:48:36.215Z,3.77
2019-02-23T21:51:10.916Z,3.37
2019-02-23T21:53:41.281Z,3.57
2019-02-23T21:56:11.569Z,3.60
2019-02-23T21:58:42.309Z,3.50
2019-02-23T22:01:14.240Z,3.33
2019-02-23T22:03:44.606Z,3.77
2019-02-23T22:06:16.324Z,3.05
2019-02-23T22:08:46.555Z,3.50
2019-02-23T22:11:17.221Z,3.60
2019-02-23T22:13:47.358Z,3.10
2019-02-23T22:16:17.621Z,3.47
2019-02-23T22:18:47.839Z,3.57
2019-02-23T22:21:18.665Z,3.40
2019-02-23T22:23:48.809Z,3.23
2019-02-23T22:26:19.507Z,3.15
2019-02-23T22:28:49.741Z,3.60
2019-02-23T22:31:22.398Z,3.57
2019-02-23T22:33:52.624Z,3.57
2019-02-23T22:36:22.801Z,2.90
2019-02-23T22:38:53.258Z,3.75
2019-02-23T22:41:23.582Z,3.67
2019-02-23T22:43:53.827Z,3.20
2019-02-23T22:46:24.284Z,3.45
2019-02-23T22:48:54.508Z,3.37
2019-02-23T22:51:25.307Z,3.43
2019-02-23T22:53:55.396Z,3.30
2019-02-23T22:56:25.574Z,2.97
2019-02-23T22:58:55.743Z,3.50
2019-02-23T23:01:26.800Z,2.77
2019-02-23T23:03:57.498Z,3.27
2019-02-23T23:06:27.713Z,3.57
2019-02-23T23:08:57.890Z,3.30
2019-02-23T23:11:28.299Z,3.07
2019-02-23T23:14:00.100Z,3.50
2019-02-23T23:16:30.739Z,3.00
2019-02-23T23:19:00.982Z,3.70
2019-02-23T23:21:31.121Z,3.90
2019-02-23T23:24:01.749Z,3.37
2019-02-23T23:26:33.171Z,3.57
2019-02-23T23:29:04.689Z,3.40
2019-02-23T23:31:36.075Z,3.50
2019-02-23T23:34:07.617Z,3.50
2019-02-23T23:36:37.899Z,3.13
2019-02-23T23:39:08.108Z,3.30
2019-02-23T23:41:38.623Z,3.30
2019-02-23T23:44:08.829Z,3.00
2019-02-23T23:46:39.197Z,3.63
2019-02-23T23:49:09.878Z,3.30
2019-02-23T23:51:40.133Z,3.50
2019-02-23T23:54:10.599Z,4.25
2019-02-23T23:56:40.779Z,4.43
2019-02-23T23:59:10.977Z,4.03
